sensor_id;sensor_type;location;lat;lon;timestamp;pressure;altitude;pressure_sealevel;temperature;humidity
71195;BME280;58908;51.426;7.714;2024-03-02T00:00:12;98331.53;;;7.99;100.00
71195;BME280;58908;51.426;7.714;2024-03-02T00:02:39;98340.47;;;7.97;100.00
71195;BME280;58908;51.426;7.714;2024-03-02T00:05:07;98331.97;;;8.18;100.00
71195;BME280;58908;51.426;7.714;2024-03-02T00:07:33;98327.94;;;8.13;100.00
71195;BME280;58908;51.426;7.714;2024-03-02T00:10:00;98326.28;;;8.24;100.00
71195;BME280;58908;51.426;7.714;2024-03-02T00:12:26;98321.22;;;8.21;100.00
71195;BME280;58908;51.426;7.714;2024-03-02T00:14:52;98330.06;;;8.08;100.00
71195;BME280;58908;51.426;7.714;2024-03-02T00:17:22;98326.59;;;8.07;100.00
71195;BME280;58908;51.426;7.714;2024-03-02T00:19:50;98329.03;;;8.23;100.00
71195;BME280;58908;51.426;7.714;2024-03-02T00:22:17;98330.06;;;8.20;100.00
71195;BME280;58908;51.426;7.714;2024-03-02T00:24:44;98321.75;;;8.14;100.00
71195;BME280;58908;51.426;7.714;2024-03-02T00:27:10;98333.94;;;8.15;100.00
71195;BME280;58908;51.426;7.714;2024-03-02T00:29:39;98321.13;;;8.10;100.00
71195;BME280;58908;51.426;7.714;2024-03-02T00:32:07;98323.34;;;8.29;100.00
71195;BME280;58908;51.426;7.714;2024-03-02T00:34:36;98329.34;;;8.18;100.00
71195;BME280;58908;51.426;7.714;2024-03-02T00:37:03;98336.88;;;8.10;100.00
71195;BME280;58908;51.426;7.714;2024-03-02T00:39:33;98344.47;;;8.02;100.00
71195;BME280;58908;51.426;7.714;2024-03-02T00:41:59;98343.47;;;8.16;100.00
71195;BME280;58908;51.426;7.714;2024-03-02T00:44:25;98333.63;;;8.32;100.00
71195;BME280;58908;51.426;7.714;2024-03-02T00:46:54;98343.38;;;8.17;100.00
71195;BME280;58908;51.426;7.714;2024-03-02T00:49:21;98334.78;;;8.15;100.00
71195;BME280;58908;51.426;7.714;2024-03-02T00:51:48;98335.19;;;8.09;100.00
71195;BME280;58908;51.426;7.714;2024-03-02T00:54:15;98330.69;;;8.24;100.00
71195;BME280;58908;51.426;7.714;2024-03-02T00:56:42;98331.00;;;8.19;100.00
71195;BME280;58908;51.426;7.714;2024-03-02T00:59:11;98336.38;;;8.05;100.00
71195;BME280;58908;51.426;7.714;2024-03-02T01:01:38;98324.50;;;8.00;100.00
71195;BME280;58908;51.426;7.714;2024-03-02T01:04:04;98326.91;;;8.03;100.00
71195;BME280;58908;51.426;7.714;2024-03-02T01:06:30;98326.63;;;7.95;100.00
71195;BME280;58908;51.426;7.714;2024-03-02T01:08:56;98322.28;;;8.06;100.00
71195;BME280;58908;51.426;7.714;2024-03-02T01:11:23;98308.22;;;8.20;100.00
71195;BME280;58908;51.426;7.714;2024-03-02T01:13:50;98313.69;;;8.17;100.00
71195;BME280;58908;51.426;7.714;2024-03-02T01:16:17;98316.84;;;7.97;100.00
71195;BME280;58908;51.426;7.714;2024-03-02T01:18:43;98304.44;;;7.99;100.00
71195;BME280;58908;51.426;7.714;2024-03-02T01:21:09;98316.72;;;7.98;100.00
71195;BME280;58908;51.426;7.714;2024-03-02T01:23:35;98311.81;;;7.81;100.00
71195;BME280;58908;51.426;7.714;2024-03-02T01:26:02;98303.72;;;7.97;100.00
71195;BME280;58908;51.426;7.714;2024-03-02T01:28:28;98312.22;;;7.88;100.00
71195;BME280;58908;51.426;7.714;2024-03-02T01:30:55;98313.06;;;7.76;100.00
71195;BME280;58908;51.426;7.714;2024-03-02T01:33:22;98294.25;;;7.94;100.00
71195;BME280;58908;51.426;7.714;2024-03-02T01:35:48;98302.78;;;7.98;100.00
71195;BME280;58908;51.426;7.714;2024-03-02T01:38:14;98298.88;;;7.91;100.00
71195;BME280;58908;51.426;7.714;2024-03-02T01:40:41;98294.47;;;7.91;100.00
71195;BME280;58908;51.426;7.714;2024-03-02T01:43:09;98281.13;;;7.94;100.00
71195;BME280;58908;51.426;7.714;2024-03-02T01:45:35;98295.34;;;7.79;100.00
71195;BME280;58908;51.426;7.714;2024-03-02T01:48:04;98296.06;;;7.81;100.00
71195;BME280;58908;51.426;7.714;2024-03-02T01:50:31;98296.81;;;7.58;100.00
71195;BME280;58908;51.426;7.714;2024-03-02T01:52:58;98290.50;;;7.61;100.00
71195;BME280;58908;51.426;7.714;2024-03-02T01:55:24;98292.16;;;7.74;100.00
71195;BME280;58908;51.426;7.714;2024-03-02T01:57:52;98284.72;;;7.81;100.00
71195;BME280;58908;51.426;7.714;2024-03-02T02:00:19;98276.75;;;7.82;100.00
71195;BME280;58908;51.426;7.714;2024-03-02T02:02:46;98271.91;;;8.01;100.00
71195;BME280;58908;51.426;7.714;2024-03-02T02:05:14;98273.44;;;8.04;100.00
71195;BME280;58908;51.426;7.714;2024-03-02T02:07:40;98269.47;;;7.98;100.00
71195;BME280;58908;51.426;7.714;2024-03-02T02:10:07;98270.53;;;7.96;100.00
71195;BME280;58908;51.426;7.714;2024-03-02T02:12:34;98266.41;;;8.04;100.00
71195;BME280;58908;51.426;7.714;2024-03-02T02:15:00;98257.16;;;8.24;100.00
71195;BME280;58908;51.426;7.714;2024-03-02T02:17:27;98251.16;;;8.09;100.00
71195;BME280;58908;51.426;7.714;2024-03-02T02:19:53;98250.00;;;8.26;100.00
71195;BME280;58908;51.426;7.714;2024-03-02T02:22:20;98248.31;;;8.25;100.00
71195;BME280;58908;51.426;7.714;2024-03-02T02:24:47;98248.31;;;8.25;100.00
71195;BME280;58908;51.426;7.714;2024-03-02T02:27:13;98257.16;;;8.24;100.00
71195;BME280;58908;51.426;7.714;2024-03-02T02:29:40;98258.31;;;8.20;100.00
71195;BME280;58908;51.426;7.714;2024-03-02T02:32:06;98261.06;;;8.06;100.00
71195;BME280;58908;51.426;7.714;2024-03-02T02:34:33;98263.06;;;8.02;100.00
71195;BME280;58908;51.426;7.714;2024-03-02T02:36:59;98265.47;;;8.05;100.00
71195;BME280;58908;51.426;7.714;2024-03-02T02:39:27;98272.44;;;7.81;100.00
71195;BME280;58908;51.426;7.714;2024-03-02T02:41:55;98266.66;;;7.89;100.00
71195;BME280;58908;51.426;7.714;2024-03-02T02:44:21;98261.72;;;7.72;100.00
71195;BME280;58908;51.426;7.714;2024-03-02T02:46:48;98261.22;;;7.79;100.00
71195;BME280;58908;51.426;7.714;2024-03-02T02:49:14;98256.69;;;7.69;100.00
71195;BME280;58908;51.426;7.714;2024-03-02T02:51:40;98259.63;;;7.64;100.00
71195;BME280;58908;51.426;7.714;2024-03-02T02:54:06;98259.22;;;7.70;100.00
71195;BME280;58908;51.426;7.714;2024-03-02T02:56:34;98252.72;;;7.51;100.00
71195;BME280;58908;51.426;7.714;2024-03-02T02:59:00;98252.81;;;7.49;100.00
71195;BME280;58908;51.426;7.714;2024-03-02T03:01:27;98251.47;;;7.56;100.00
71195;BME280;58908;51.426;7.714;2024-03-02T03:03:53;98238.09;;;7.72;100.00
71195;BME280;58908;51.426;7.714;2024-03-02T03:06:19;98246.63;;;7.63;100.00
71195;BME280;58908;51.426;7.714;2024-03-02T03:08:45;98245.47;;;7.79;100.00
71195;BME280;58908;51.426;7.714;2024-03-02T03:11:11;98254.28;;;7.66;100.00
71195;BME280;58908;51.426;7.714;2024-03-02T03:13:39;98254.50;;;7.50;100.00
71195;BME280;58908;51.426;7.714;2024-03-02T03:16:05;98256.50;;;7.47;100.00
71195;BME280;58908;51.426;7.714;2024-03-02T03:18:32;98263.41;;;7.48;100.00
71195;BME280;58908;51.426;7.714;2024-03-02T03:20:58;98256.19;;;7.39;100.00
71195;BME280;58908;51.426;7.714;2024-03-02T03:23:24;98253.22;;;7.43;100.00
71195;BME280;58908;51.426;7.714;2024-03-02T03:25:50;98254.19;;;7.55;100.00
71195;BME280;58908;51.426;7.714;2024-03-02T03:28:17;98251.97;;;7.61;100.00
71195;BME280;58908;51.426;7.714;2024-03-02T03:30:44;98249.13;;;7.64;100.00
71195;BME280;58908;51.426;7.714;2024-03-02T03:33:10;98251.47;;;7.56;100.00
71195;BME280;58908;51.426;7.714;2024-03-02T03:35:37;98251.38;;;7.45;100.00
71195;BME280;58908;51.426;7.714;2024-03-02T03:38:03;98248.72;;;7.58;100.00
71195;BME280;58908;51.426;7.714;2024-03-02T03:40:30;98241.66;;;7.71;100.00
71195;BME280;58908;51.426;7.714;2024-03-02T03:42:57;98254.59;;;7.49;100.00
71195;BME280;58908;51.426;7.714;2024-03-02T03:45:24;98253.47;;;7.53;100.00
71195;BME280;58908;51.426;7.714;2024-03-02T03:47:53;98253.75;;;7.36;100.00
71195;BME280;58908;51.426;7.714;2024-03-02T03:50:19;98254.00;;;7.45;100.00
71195;BME280;58908;51.426;7.714;2024-03-02T03:52:45;98259.03;;;7.48;100.00
71195;BME280;58908;51.426;7.714;2024-03-02T03:55:11;98263.53;;;7.46;100.00
71195;BME280;58908;51.426;7.714;2024-03-02T03:57:38;98258.94;;;7.50;100.00
71195;BME280;58908;51.426;7.714;2024-03-02T04:00:05;98264.38;;;7.34;100.00
71195;BME280;58908;51.426;7.714;2024-03-02T04:02:31;98267.19;;;7.31;100.00
71195;BME280;58908;51.426;7.714;2024-03-02T04:04:59;98277.47;;;7.22;100.00
71195;BME280;58908;51.426;7.714;2024-03-02T04:07:25;98263.00;;;7.41;100.00
71195;BME280;58908;51.426;7.714;2024-03-02T04:09:51;98265.94;;;7.49;100.00
71195;BME280;58908;51.426;7.714;2024-03-02T04:12:18;98274.34;;;7.42;100.00
71195;BME280;58908;51.426;7.714;2024-03-02T04:14:44;98270.44;;;7.35;100.00
71195;BME280;58908;51.426;7.714;2024-03-02T04:17:10;98279.16;;;7.48;100.00
71195;BME280;58908;51.426;7.714;2024-03-02T04:19:36;98273.78;;;7.74;100.00
71195;BME280;58908;51.426;7.714;2024-03-02T04:22:04;98271.41;;;7.84;100.00
71195;BME280;58908;51.426;7.714;2024-03-02T04:24:30;98269.06;;;7.92;100.00
71195;BME280;58908;51.426;7.714;2024-03-02T04:26:57;98258.97;;;7.98;100.00
71195;BME280;58908;51.426;7.714;2024-03-02T04:29:23;98248.25;;;8.01;100.00
71195;BME280;58908;51.426;7.714;2024-03-02T04:31:49;98247.41;;;8.01;100.00
71195;BME280;58908;51.426;7.714;2024-03-02T04:34:15;98257.69;;;8.04;100.00
71195;BME280;58908;51.426;7.714;2024-03-02T04:36:42;98261.25;;;8.03;100.00
71195;BME280;58908;51.426;7.714;2024-03-02T04:39:09;98266.56;;;7.90;100.00
71195;BME280;58908;51.426;7.714;2024-03-02T04:41:35;98268.31;;;7.90;100.00
71195;BME280;58908;51.426;7.714;2024-03-02T04:44:02;98272.63;;;7.91;100.00
71195;BME280;58908;51.426;7.714;2024-03-02T04:46:28;98269.59;;;7.84;100.00
71195;BME280;58908;51.426;7.714;2024-03-02T04:48:54;98271.81;;;7.78;100.00
71195;BME280;58908;51.426;7.714;2024-03-02T04:51:22;98271.41;;;7.84;100.00
71195;BME280;58908;51.426;7.714;2024-03-02T04:53:48;98282.31;;;7.78;100.00
71195;BME280;58908;51.426;7.714;2024-03-02T04:56:15;98278.50;;;7.82;100.00
71195;BME280;58908;51.426;7.714;2024-03-02T04:59:09;98267.06;;;7.83;100.00
71195;BME280;58908;51.426;7.714;2024-03-02T05:01:35;98275.69;;;7.85;100.00
71195;BME280;58908;51.426;7.714;2024-03-02T05:04:01;98273.06;;;7.72;100.00
71195;BME280;58908;51.426;7.714;2024-03-02T05:06:28;98280.00;;;7.73;100.00
71195;BME280;58908;51.426;7.714;2024-03-02T05:08:54;98280.94;;;7.47;100.00
71195;BME280;58908;51.426;7.714;2024-03-02T05:11:22;98277.69;;;7.44;100.00
71195;BME280;58908;51.426;7.714;2024-03-02T05:14:13;98281.66;;;7.37;100.00
71195;BME280;58908;51.426;7.714;2024-03-02T05:16:39;98296.25;;;7.28;100.00
71195;BME280;58908;51.426;7.714;2024-03-02T05:19:06;98295.09;;;7.20;100.00
71195;BME280;58908;51.426;7.714;2024-03-02T05:21:32;98293.50;;;7.17;100.00
71195;BME280;58908;51.426;7.714;2024-03-02T05:23:59;98307.56;;;7.16;100.00
71195;BME280;58908;51.426;7.714;2024-03-02T05:26:27;98305.66;;;7.18;100.00
71195;BME280;58908;51.426;7.714;2024-03-02T05:28:53;98323.50;;;7.13;100.00
71195;BME280;58908;51.426;7.714;2024-03-02T05:31:19;98324.63;;;7.09;100.00
71195;BME280;58908;51.426;7.714;2024-03-02T05:33:46;98329.28;;;6.92;100.00
71195;BME280;58908;51.426;7.714;2024-03-02T05:36:12;98330.28;;;7.03;100.00
71195;BME280;58908;51.426;7.714;2024-03-02T05:38:38;98332.56;;;6.96;100.00
71195;BME280;58908;51.426;7.714;2024-03-02T05:41:05;98340.06;;;6.88;100.00
71195;BME280;58908;51.426;7.714;2024-03-02T05:43:32;98337.81;;;6.96;100.00
71195;BME280;58908;51.426;7.714;2024-03-02T05:45:58;98338.66;;;6.96;100.00
71195;BME280;58908;51.426;7.714;2024-03-02T05:48:25;98338.22;;;7.02;100.00
71195;BME280;58908;51.426;7.714;2024-03-02T05:50:51;98336.97;;;6.95;100.00
71195;BME280;58908;51.426;7.714;2024-03-02T05:53:17;98338.44;;;6.99;100.00
71195;BME280;58908;51.426;7.714;2024-03-02T05:55:43;98338.22;;;6.90;100.00
71195;BME280;58908;51.426;7.714;2024-03-02T05:58:10;98350.38;;;6.91;100.00
71195;BME280;58908;51.426;7.714;2024-03-02T06:00:49;98342.22;;;6.95;100.00
71195;BME280;58908;51.426;7.714;2024-03-02T06:03:15;98344.34;;;7.03;100.00
71195;BME280;58908;51.426;7.714;2024-03-02T06:05:41;98348.34;;;7.08;100.00
71195;BME280;58908;51.426;7.714;2024-03-02T06:08:07;98342.75;;;7.00;100.00
71195;BME280;58908;51.426;7.714;2024-03-02T06:10:33;98347.53;;;6.94;100.00
71195;BME280;58908;51.426;7.714;2024-03-02T06:13:00;98342.75;;;7.00;100.00
71195;BME280;58908;51.426;7.714;2024-03-02T06:15:26;98340.97;;;7.01;100.00
71195;BME280;58908;51.426;7.714;2024-03-02T06:17:53;98345.06;;;7.04;100.00
71195;BME280;58908;51.426;7.714;2024-03-02T06:20:20;98349.66;;;7.01;100.00
71195;BME280;58908;51.426;7.714;2024-03-02T06:22:46;98349.47;;;7.04;100.00
71195;BME280;58908;51.426;7.714;2024-03-02T06:25:12;98348.50;;;7.05;100.00
71195;BME280;58908;51.426;7.714;2024-03-02T06:27:39;98348.94;;;6.99;100.00
71195;BME280;58908;51.426;7.714;2024-03-02T06:30:05;98353.22;;;7.00;100.00
71195;BME280;58908;51.426;7.714;2024-03-02T06:32:31;98349.28;;;7.07;100.00
71195;BME280;58908;51.426;7.714;2024-03-02T06:34:59;98352.00;;;7.05;100.00
71195;BME280;58908;51.426;7.714;2024-03-02T06:37:25;98351.47;;;7.01;100.00
71195;BME280;58908;51.426;7.714;2024-03-02T06:39:52;98357.44;;;7.03;100.00
71195;BME280;58908;51.426;7.714;2024-03-02T06:42:18;98367.66;;;6.93;100.00
71195;BME280;58908;51.426;7.714;2024-03-02T06:44:47;98375.66;;;6.92;100.00
71195;BME280;58908;51.426;7.714;2024-03-02T06:47:13;98368.97;;;7.00;100.00
71195;BME280;58908;51.426;7.714;2024-03-02T06:49:41;98363.63;;;7.02;100.00
71195;BME280;58908;51.426;7.714;2024-03-02T06:52:09;98363.41;;;7.04;100.00
71195;BME280;58908;51.426;7.714;2024-03-02T06:54:36;98366.09;;;7.17;100.00
71195;BME280;58908;51.426;7.714;2024-03-02T06:57:02;98363.06;;;7.23;100.00
71195;BME280;58908;51.426;7.714;2024-03-02T06:59:29;98360.47;;;7.48;100.00
71195;BME280;58908;51.426;7.714;2024-03-02T07:01:55;98350.75;;;7.87;100.00
71195;BME280;58908;51.426;7.714;2024-03-02T07:04:21;98349.06;;;8.36;100.00
71195;BME280;58908;51.426;7.714;2024-03-02T07:06:48;98338.47;;;8.74;100.00
71195;BME280;58908;51.426;7.714;2024-03-02T07:09:15;98339.94;;;8.29;100.00
71195;BME280;58908;51.426;7.714;2024-03-02T07:11:41;98353.78;;;8.06;100.00
71195;BME280;58908;51.426;7.714;2024-03-02T07:14:08;98357.28;;;8.07;100.00
71195;BME280;58908;51.426;7.714;2024-03-02T07:16:34;98350.88;;;8.95;100.00
71195;BME280;58908;51.426;7.714;2024-03-02T07:19:03;98340.88;;;9.69;100.00
71195;BME280;58908;51.426;7.714;2024-03-02T07:21:29;98339.47;;;9.98;100.00
71195;BME280;58908;51.426;7.714;2024-03-02T07:23:55;98336.16;;;10.07;100.00
71195;BME280;58908;51.426;7.714;2024-03-02T07:26:23;98334.50;;;10.28;100.00
71195;BME280;58908;51.426;7.714;2024-03-02T07:28:49;98334.13;;;10.43;100.00
71195;BME280;58908;51.426;7.714;2024-03-02T07:31:16;98337.97;;;10.50;100.00
71195;BME280;58908;51.426;7.714;2024-03-02T07:33:43;98339.81;;;9.82;100.00
71195;BME280;58908;51.426;7.714;2024-03-02T07:36:09;98335.47;;;10.38;100.00
71195;BME280;58908;51.426;7.714;2024-03-02T07:38:36;98340.25;;;10.11;100.00
71195;BME280;58908;51.426;7.714;2024-03-02T07:41:02;98332.91;;;10.47;100.00
71195;BME280;58908;51.426;7.714;2024-03-02T07:43:30;98325.34;;;11.18;98.93
71195;BME280;58908;51.426;7.714;2024-03-02T07:45:58;98334.19;;;10.75;98.45
71195;BME280;58908;51.426;7.714;2024-03-02T07:48:25;98351.09;;;9.95;100.00
71195;BME280;58908;51.426;7.714;2024-03-02T07:50:52;98352.38;;;9.68;100.00
71195;BME280;58908;51.426;7.714;2024-03-02T07:53:18;98359.53;;;9.32;100.00
71195;BME280;58908;51.426;7.714;2024-03-02T07:55:44;98353.50;;;9.98;100.00
71195;BME280;58908;51.426;7.714;2024-03-02T07:58:10;98339.72;;;11.14;99.79
71195;BME280;58908;51.426;7.714;2024-03-02T08:00:39;98329.66;;;11.19;97.10
71195;BME280;58908;51.426;7.714;2024-03-02T08:03:06;98324.81;;;11.24;96.06
71195;BME280;58908;51.426;7.714;2024-03-02T08:05:34;98324.44;;;11.81;94.99
71195;BME280;58908;51.426;7.714;2024-03-02T08:08:01;98326.75;;;11.74;94.94
71195;BME280;58908;51.426;7.714;2024-03-02T08:10:27;98348.53;;;10.50;98.09
71195;BME280;58908;51.426;7.714;2024-03-02T08:12:53;98361.28;;;9.89;100.00
71195;BME280;58908;51.426;7.714;2024-03-02T08:15:20;98363.25;;;9.63;100.00
71195;BME280;58908;51.426;7.714;2024-03-02T08:17:47;98371.09;;;9.52;100.00
71195;BME280;58908;51.426;7.714;2024-03-02T08:20:14;98362.28;;;10.32;100.00
71195;BME280;58908;51.426;7.714;2024-03-02T08:22:41;98361.13;;;9.90;100.00
71195;BME280;58908;51.426;7.714;2024-03-02T08:25:07;98367.97;;;9.82;100.00
71195;BME280;58908;51.426;7.714;2024-03-02T08:27:34;98373.19;;;9.71;100.00
71195;BME280;58908;51.426;7.714;2024-03-02T08:30:01;98385.44;;;9.48;100.00
71195;BME280;58908;51.426;7.714;2024-03-02T08:32:28;98391.84;;;9.34;100.00
71195;BME280;58908;51.426;7.714;2024-03-02T08:34:56;98392.81;;;9.67;100.00
71195;BME280;58908;51.426;7.714;2024-03-02T08:37:22;98372.97;;;10.52;100.00
71195;BME280;58908;51.426;7.714;2024-03-02T08:39:48;98356.66;;;11.12;98.50
71195;BME280;58908;51.426;7.714;2024-03-02T08:42:15;98354.47;;;11.17;97.77
71195;BME280;58908;51.426;7.714;2024-03-02T08:44:42;98358.50;;;11.32;96.70
71195;BME280;58908;51.426;7.714;2024-03-02T08:47:08;98344.91;;;11.36;95.10
71195;BME280;58908;51.426;7.714;2024-03-02T08:49:35;98335.16;;;12.09;93.28
71195;BME280;58908;51.426;7.714;2024-03-02T08:52:02;98337.00;;;12.48;91.89
71195;BME280;58908;51.426;7.714;2024-03-02T08:54:29;98334.63;;;12.45;91.47
71195;BME280;58908;51.426;7.714;2024-03-02T08:56:55;98344.22;;;12.16;91.06
71195;BME280;58908;51.426;7.714;2024-03-02T08:59:21;98341.25;;;12.30;91.09
71195;BME280;58908;51.426;7.714;2024-03-02T09:01:50;98340.03;;;12.43;89.90
71195;BME280;58908;51.426;7.714;2024-03-02T09:04:16;98343.19;;;13.16;88.20
71195;BME280;58908;51.426;7.714;2024-03-02T09:06:42;98334.13;;;13.38;86.16
71195;BME280;58908;51.426;7.714;2024-03-02T09:09:10;98347.94;;;12.64;86.96
71195;BME280;58908;51.426;7.714;2024-03-02T09:11:36;98354.50;;;12.79;89.08
71195;BME280;58908;51.426;7.714;2024-03-02T09:14:02;98329.44;;;13.51;85.93
71195;BME280;58908;51.426;7.714;2024-03-02T09:16:30;98332.03;;;13.79;84.28
71195;BME280;58908;51.426;7.714;2024-03-02T09:18:56;98320.06;;;13.18;84.74
71195;BME280;58908;51.426;7.714;2024-03-02T09:21:22;98342.22;;;13.08;87.04
71195;BME280;58908;51.426;7.714;2024-03-02T09:23:50;98331.56;;;12.79;86.27
71195;BME280;58908;51.426;7.714;2024-03-02T09:26:18;98328.97;;;13.17;86.25
71195;BME280;58908;51.426;7.714;2024-03-02T09:28:44;98320.69;;;12.92;85.62
71195;BME280;58908;51.426;7.714;2024-03-02T09:31:11;98316.88;;;13.53;85.45
71195;BME280;58908;51.426;7.714;2024-03-02T09:33:37;98318.53;;;13.54;84.94
71195;BME280;58908;51.426;7.714;2024-03-02T09:36:04;98319.84;;;14.05;83.60
71195;BME280;58908;51.426;7.714;2024-03-02T09:38:31;98310.84;;;13.60;83.30
71195;BME280;58908;51.426;7.714;2024-03-02T09:40:57;98316.06;;;14.08;82.65
71195;BME280;58908;51.426;7.714;2024-03-02T09:43:25;98312.09;;;13.85;82.48
71195;BME280;58908;51.426;7.714;2024-03-02T09:45:52;98304.34;;;14.01;82.18
71195;BME280;58908;51.426;7.714;2024-03-02T09:48:19;98302.31;;;13.85;82.37
71195;BME280;58908;51.426;7.714;2024-03-02T09:50:45;98306.81;;;14.21;80.15
71195;BME280;58908;51.426;7.714;2024-03-02T09:53:12;98304.28;;;13.74;81.18
71195;BME280;58908;51.426;7.714;2024-03-02T09:55:40;98307.88;;;14.38;80.41
71195;BME280;58908;51.426;7.714;2024-03-02T09:58:08;98311.97;;;13.67;79.91
71195;BME280;58908;51.426;7.714;2024-03-02T10:00:36;98299.41;;;14.25;79.13
71195;BME280;58908;51.426;7.714;2024-03-02T10:03:03;98312.13;;;14.21;79.93
71195;BME280;58908;51.426;7.714;2024-03-02T10:05:29;98303.63;;;14.54;79.17
71195;BME280;58908;51.426;7.714;2024-03-02T10:07:58;98306.16;;;14.10;80.18
71195;BME280;58908;51.426;7.714;2024-03-02T10:10:26;98314.19;;;13.81;80.63
71195;BME280;58908;51.426;7.714;2024-03-02T10:13:03;98324.81;;;13.53;82.25
71195;BME280;58908;51.426;7.714;2024-03-02T10:15:30;98327.88;;;12.71;83.36
71195;BME280;58908;51.426;7.714;2024-03-02T10:17:57;98326.47;;;12.97;83.65
71195;BME280;58908;51.426;7.714;2024-03-02T10:20:24;98328.25;;;12.96;84.31
71195;BME280;58908;51.426;7.714;2024-03-02T10:22:51;98332.06;;;12.64;85.22
71195;BME280;58908;51.426;7.714;2024-03-02T10:25:30;98333.72;;;12.55;84.97
71195;BME280;58908;51.426;7.714;2024-03-02T10:27:57;98330.81;;;12.68;85.72
71195;BME280;58908;51.426;7.714;2024-03-02T10:30:23;98328.53;;;13.03;85.40
71195;BME280;58908;51.426;7.714;2024-03-02T10:32:49;98330.13;;;13.24;83.97
71195;BME280;58908;51.426;7.714;2024-03-02T10:35:17;98331.75;;;12.97;84.78
71195;BME280;58908;51.426;7.714;2024-03-02T10:37:43;98317.94;;;13.03;85.66
71195;BME280;58908;51.426;7.714;2024-03-02T10:40:10;98322.38;;;12.93;85.04
71195;BME280;58908;51.426;7.714;2024-03-02T10:42:37;98316.84;;;12.96;84.43
71195;BME280;58908;51.426;7.714;2024-03-02T10:45:04;98330.22;;;12.94;85.39
71195;BME280;58908;51.426;7.714;2024-03-02T10:47:31;98316.97;;;13.04;84.63
71195;BME280;58908;51.426;7.714;2024-03-02T10:49:59;98316.72;;;13.26;84.71
71195;BME280;58908;51.426;7.714;2024-03-02T10:52:28;98330.25;;;13.13;83.88
71195;BME280;58908;51.426;7.714;2024-03-02T10:54:55;98322.75;;;13.28;83.91
71195;BME280;58908;51.426;7.714;2024-03-02T10:57:21;98312.00;;;13.39;83.09
71195;BME280;58908;51.426;7.714;2024-03-02T10:59:50;98305.72;;;13.40;83.73
71195;BME280;58908;51.426;7.714;2024-03-02T11:02:17;98318.00;;;13.41;83.42
71195;BME280;58908;51.426;7.714;2024-03-02T11:04:46;98318.38;;;13.27;82.70
71195;BME280;58908;51.426;7.714;2024-03-02T11:07:15;98305.72;;;13.30;81.31
71195;BME280;58908;51.426;7.714;2024-03-02T11:09:49;98303.91;;;13.40;82.29
71195;BME280;58908;51.426;7.714;2024-03-02T11:12:19;98313.38;;;13.43;82.89
71195;BME280;58908;51.426;7.714;2024-03-02T11:14:45;98312.34;;;12.87;80.64
71195;BME280;58908;51.426;7.714;2024-03-02T11:17:13;98311.72;;;13.42;82.71
71195;BME280;58908;51.426;7.714;2024-03-02T11:19:40;98300.97;;;13.53;82.27
71195;BME280;58908;51.426;7.714;2024-03-02T11:22:07;98301.25;;;13.40;81.15
71195;BME280;58908;51.426;7.714;2024-03-02T11:24:34;98304.31;;;13.36;81.52
71195;BME280;58908;51.426;7.714;2024-03-02T11:27:03;98290.94;;;13.37;81.53
71195;BME280;58908;51.426;7.714;2024-03-02T11:29:45;98294.00;;;13.42;81.20
71195;BME280;58908;51.426;7.714;2024-03-02T11:32:15;98297.47;;;13.62;82.06
71195;BME280;58908;51.426;7.714;2024-03-02T11:34:42;98290.59;;;13.88;81.12
71195;BME280;58908;51.426;7.714;2024-03-02T11:37:10;98295.47;;;13.83;82.26
71195;BME280;58908;51.426;7.714;2024-03-02T11:39:37;98294.13;;;13.69;80.50
71195;BME280;58908;51.426;7.714;2024-03-02T11:42:05;98300.63;;;13.84;82.09
71195;BME280;58908;51.426;7.714;2024-03-02T11:44:34;98299.13;;;13.72;80.76
71195;BME280;58908;51.426;7.714;2024-03-02T11:47:01;98303.53;;;13.91;80.81
71195;BME280;58908;51.426;7.714;2024-03-02T11:49:36;98301.16;;;13.97;80.89
71195;BME280;58908;51.426;7.714;2024-03-02T11:52:02;98286.25;;;13.87;79.56
71195;BME280;58908;51.426;7.714;2024-03-02T11:54:30;98287.25;;;13.76;79.27
71195;BME280;58908;51.426;7.714;2024-03-02T11:56:59;98276.03;;;14.01;79.37
71195;BME280;58908;51.426;7.714;2024-03-02T11:59:27;98271.53;;;14.11;79.82
71195;BME280;58908;51.426;7.714;2024-03-02T12:01:55;98271.34;;;14.32;79.73
71195;BME280;58908;51.426;7.714;2024-03-02T12:04:22;98276.03;;;14.38;80.70
71195;BME280;58908;51.426;7.714;2024-03-02T12:06:53;98271.97;;;14.07;78.54
71195;BME280;58908;51.426;7.714;2024-03-02T12:09:20;98263.91;;;13.99;78.44
71195;BME280;58908;51.426;7.714;2024-03-02T12:11:46;98262.28;;;14.25;79.22
71195;BME280;58908;51.426;7.714;2024-03-02T12:14:13;98259.97;;;14.03;77.86
71195;BME280;58908;51.426;7.714;2024-03-02T12:16:40;98274.47;;;14.44;79.80
71195;BME280;58908;51.426;7.714;2024-03-02T12:19:09;98258.03;;;14.68;78.71
71195;BME280;58908;51.426;7.714;2024-03-02T12:21:35;98247.16;;;14.61;78.41
71195;BME280;58908;51.426;7.714;2024-03-02T12:24:02;98247.28;;;14.43;76.83
71195;BME280;58908;51.426;7.714;2024-03-02T12:26:28;98254.63;;;14.48;78.10
71195;BME280;58908;51.426;7.714;2024-03-02T12:28:55;98255.59;;;14.74;78.42
71195;BME280;58908;51.426;7.714;2024-03-02T12:31:21;98246.66;;;14.48;76.51
71195;BME280;58908;51.426;7.714;2024-03-02T12:33:49;98258.25;;;14.47;78.66
71195;BME280;58908;51.426;7.714;2024-03-02T12:36:15;98259.78;;;14.50;77.70
71195;BME280;58908;51.426;7.714;2024-03-02T12:38:43;98251.09;;;14.57;76.89
71195;BME280;58908;51.426;7.714;2024-03-02T12:41:09;98248.31;;;14.49;77.19
71195;BME280;58908;51.426;7.714;2024-03-02T12:43:35;98249.44;;;14.30;76.85
71195;BME280;58908;51.426;7.714;2024-03-02T12:46:01;98255.75;;;14.19;77.25
71195;BME280;58908;51.426;7.714;2024-03-02T12:48:29;98259.63;;;14.25;77.25
71195;BME280;58908;51.426;7.714;2024-03-02T12:50:56;98254.44;;;14.33;76.31
71195;BME280;58908;51.426;7.714;2024-03-02T12:53:22;98257.16;;;14.23;76.68
71195;BME280;58908;51.426;7.714;2024-03-02T12:55:49;98256.97;;;14.25;76.48
71195;BME280;58908;51.426;7.714;2024-03-02T12:58:16;98248.22;;;14.24;75.96